createdAt,value
2019-05-06T00:00:58.207Z,78.89
2019-05-06T00:01:50.214Z,78.99
2019-05-06T00:02:50.189Z,78.89
2019-05-06T00:03:50.169Z,78.89
2019-05-06T00:04:50.152Z,78.23
2019-05-06T00:05:50.136Z,78.32
2019-05-06T00:06:50.108Z,78.23
2019-05-06T00:07:50.088Z,78.03
2019-05-06T00:08:50.065Z,78.23
2019-05-06T00:09:50.043Z,78.13
2019-05-06T00:10:50.021Z,78.13
2019-05-06T00:11:49.999Z,78.51
2019-05-06T00:12:49.977Z,78.70
2019-05-06T00:13:49.956Z,78.23
2019-05-06T00:14:49.937Z,78.13
2019-05-06T00:15:49.915Z,77.94
2019-05-06T00:16:49.894Z,78.13
2019-05-06T00:17:49.921Z,77.66
2019-05-06T00:18:49.860Z,78.13
2019-05-06T00:19:49.831Z,78.80
2019-05-06T00:20:49.808Z,78.80
2019-05-06T00:21:49.786Z,78.80
2019-05-06T00:22:49.771Z,78.23
2019-05-06T00:23:49.744Z,78.03
2019-05-06T00:24:49.725Z,77.84
2019-05-06T00:25:49.702Z,78.23
2019-05-06T00:26:49.689Z,78.13
2019-05-06T00:27:49.662Z,77.84
2019-05-06T00:28:49.639Z,77.84
2019-05-06T00:29:49.617Z,78.70
2019-05-06T00:30:49.602Z,78.51
2019-05-06T00:31:49.573Z,78.03
2019-05-06T00:32:49.561Z,78.70
2019-05-06T00:33:49.537Z,78.23
2019-05-06T00:34:49.511Z,78.23
2019-05-06T00:35:49.491Z,78.03
2019-05-06T00:36:49.469Z,79.36
2019-05-06T00:37:49.445Z,79.46
2019-05-06T00:38:49.427Z,78.89
2019-05-06T00:39:49.405Z,78.32
2019-05-06T00:40:49.385Z,78.32
2019-05-06T00:41:49.363Z,78.23
2019-05-06T00:42:49.337Z,78.51
2019-05-06T00:43:49.319Z,78.51
2019-05-06T00:44:49.297Z,78.61
2019-05-06T00:45:49.277Z,78.99
2019-05-06T00:46:49.253Z,78.70
2019-05-06T00:47:49.234Z,78.80
2019-05-06T00:48:49.213Z,78.70
2019-05-06T00:49:49.191Z,78.89
2019-05-06T00:50:49.169Z,78.61
2019-05-06T00:51:49.147Z,78.99
2019-05-06T00:52:49.126Z,79.17
2019-05-06T00:53:49.107Z,79.36
2019-05-06T00:54:49.084Z,79.84
2019-05-06T00:55:49.071Z,79.74
2019-05-06T00:56:49.044Z,80.32
2019-05-06T00:57:49.023Z,80.60
2019-05-06T00:58:49.001Z,80.22
2019-05-06T00:59:48.977Z,79.55
2019-05-06T01:00:48.957Z,80.22
2019-05-06T01:01:48.937Z,79.84
2019-05-06T01:02:48.910Z,79.65
2019-05-06T01:03:48.895Z,80.69
2019-05-06T01:04:48.872Z,80.41
2019-05-06T01:05:48.852Z,80.60
2019-05-06T01:06:48.827Z,80.79
2019-05-06T01:07:48.805Z,81.07
2019-05-06T01:08:48.787Z,80.98
2019-05-06T01:09:48.761Z,80.60
2019-05-06T01:10:48.748Z,80.22
2019-05-06T01:11:48.725Z,79.84
2019-05-06T01:12:48.703Z,79.84
2019-05-06T01:13:48.676Z,79.84
2019-05-06T01:14:48.657Z,80.13
2019-05-06T01:15:48.633Z,79.65
2019-05-06T01:16:48.619Z,79.94
2019-05-06T01:17:48.596Z,80.22
2019-05-06T01:18:48.572Z,79.55
2019-05-06T01:19:48.555Z,79.74
2019-05-06T01:20:48.532Z,78.80
2019-05-06T01:21:48.508Z,79.27
2019-05-06T01:22:48.488Z,79.36
2019-05-06T01:23:48.469Z,78.89
2019-05-06T01:24:48.442Z,79.36
2019-05-06T01:25:48.422Z,79.41
2019-05-06T01:26:48.400Z,79.97
2019-05-06T01:27:48.379Z,79.12
2019-05-06T01:28:48.361Z,79.41
2019-05-06T01:29:48.336Z,79.69
2019-05-06T01:30:48.316Z,79.50
2019-05-06T01:31:48.299Z,79.60
2019-05-06T01:32:48.276Z,79.22
2019-05-06T01:33:48.252Z,78.74
2019-05-06T01:34:48.230Z,79.12
2019-05-06T01:35:48.212Z,78.36
2019-05-06T01:36:48.192Z,78.08
2019-05-06T01:37:48.170Z,78.64
2019-05-06T01:38:48.144Z,78.27
2019-05-06T01:39:48.132Z,78.08
2019-05-06T01:40:48.106Z,78.08
2019-05-06T01:41:48.082Z,78.27
2019-05-06T01:42:48.062Z,78.27
2019-05-06T01:43:48.049Z,77.70
2019-05-06T01:44:48.019Z,77.89
2019-05-06T01:45:47.996Z,77.83
2019-05-06T01:46:47.981Z,78.21
2019-05-06T01:47:47.963Z,78.17
2019-05-06T01:48:47.935Z,78.27
2019-05-06T01:49:47.914Z,77.92
2019-05-06T01:50:47.894Z,77.36
2019-05-06T01:51:47.874Z,77.92
2019-05-06T01:52:47.861Z,77.45
2019-05-06T01:53:47.827Z,77.36
2019-05-06T01:54:47.816Z,77.17
2019-05-06T01:55:47.788Z,76.50
2019-05-06T01:56:47.768Z,76.59
2019-05-06T01:57:47.749Z,76.69
2019-05-06T01:58:47.726Z,77.45
2019-05-06T01:59:47.706Z,77.07
2019-05-06T02:00:47.683Z,77.17
2019-05-06T02:01:57.000Z,77.17
2019-05-06T02:02:47.644Z,77.36
2019-05-06T02:03:47.622Z,76.69
2019-05-06T02:04:47.600Z,76.59
2019-05-06T02:05:47.575Z,77.36
2019-05-06T02:06:47.560Z,76.97
2019-05-06T02:07:47.538Z,77.17
2019-05-06T02:08:47.518Z,77.45
2019-05-06T02:09:47.505Z,77.64
2019-05-06T02:10:47.472Z,77.64
2019-05-06T02:11:48.101Z,77.55
2019-05-06T02:12:47.435Z,77.45
2019-05-06T02:13:47.412Z,77.55
2019-05-06T02:14:47.390Z,77.17
2019-05-06T02:15:47.370Z,77.55
2019-05-06T02:16:47.348Z,76.78
2019-05-06T02:17:47.326Z,77.36
2019-05-06T02:18:47.307Z,77.17
2019-05-06T02:19:47.287Z,77.17
2019-05-06T02:20:47.265Z,76.97
2019-05-06T02:21:47.244Z,76.40
2019-05-06T02:22:47.221Z,76.78
2019-05-06T02:23:47.201Z,76.88
2019-05-06T02:24:47.184Z,76.31
2019-05-06T02:25:47.164Z,76.12
2019-05-06T02:26:47.137Z,76.21
2019-05-06T02:27:47.129Z,75.84
2019-05-06T02:28:47.097Z,76.21
2019-05-06T02:29:47.077Z,76.21
2019-05-06T02:30:47.061Z,76.03
2019-05-06T02:31:47.045Z,76.03
2019-05-06T02:32:47.020Z,76.12
2019-05-06T02:33:46.996Z,75.93
2019-05-06T02:34:46.992Z,76.40
2019-05-06T02:35:46.949Z,76.40
2019-05-06T02:36:46.945Z,76.88
2019-05-06T02:37:46.937Z,76.78
2019-05-06T02:38:51.427Z,76.97
2019-05-06T02:39:46.876Z,76.69
2019-05-06T02:40:46.852Z,76.40
2019-05-06T02:41:46.832Z,77.64
2019-05-06T02:42:46.814Z,77.22
2019-05-06T02:43:46.791Z,77.79
2019-05-06T02:44:46.765Z,77.51
2019-05-06T02:45:46.748Z,77.79
2019-05-06T02:46:46.724Z,78.27
2019-05-06T02:47:46.720Z,77.89
2019-05-06T02:48:46.686Z,77.89
2019-05-06T02:49:46.668Z,78.17
2019-05-06T02:50:46.677Z,78.08
2019-05-06T02:51:46.628Z,78.83
2019-05-06T02:52:46.603Z,78.83
2019-05-06T02:53:46.584Z,79.03
2019-05-06T02:54:46.556Z,78.55
2019-05-06T02:55:46.544Z,79.12
2019-05-06T02:56:46.521Z,79.31
2019-05-06T02:57:46.497Z,79.03
2019-05-06T02:58:46.482Z,79.41
2019-05-06T02:59:46.457Z,78.83
2019-05-06T03:00:46.434Z,78.93
2019-05-06T03:01:46.412Z,79.69
2019-05-06T03:02:48.231Z,79.60
2019-05-06T03:03:46.371Z,79.60
2019-05-06T03:04:46.350Z,79.69
2019-05-06T03:05:46.327Z,79.88
2019-05-06T03:06:46.307Z,79.55
2019-05-06T03:07:46.286Z,80.22
2019-05-06T03:08:46.270Z,80.60
2019-05-06T03:09:46.255Z,80.22
2019-05-06T03:10:46.225Z,80.22
2019-05-06T03:11:46.210Z,79.55
2019-05-06T03:12:46.183Z,80.13
2019-05-06T03:13:46.161Z,80.41
2019-05-06T03:14:46.145Z,80.22
2019-05-06T03:15:46.125Z,80.69
2019-05-06T03:16:46.099Z,80.32
2019-05-06T03:17:46.077Z,80.60
2019-05-06T03:19:24.198Z,80.69
2019-05-06T03:20:23.864Z,80.88
2019-05-06T03:21:24.652Z,81.17
2019-05-06T03:22:27.716Z,81.36
2019-05-06T03:23:23.997Z,81.45
2019-05-06T03:24:23.919Z,81.93
2019-05-06T03:25:24.154Z,82.21
2019-05-06T03:26:23.738Z,82.03
2019-05-06T03:27:23.722Z,81.84
2019-05-06T03:28:23.698Z,81.84
2019-05-06T03:29:25.321Z,81.65
2019-05-06T03:30:25.322Z,81.93
2019-05-06T03:31:26.118Z,81.93
2019-05-06T03:32:30.416Z,81.93
2019-05-06T03:33:54.978Z,82.03
2019-05-06T03:34:49.357Z,81.93
2019-05-06T03:35:36.465Z,82.03
2019-05-06T03:36:27.233Z,81.93
2019-05-06T03:37:24.024Z,81.84
2019-05-06T03:38:23.482Z,82.59
2019-05-06T03:39:23.461Z,82.31
2019-05-06T03:40:23.438Z,82.21
2019-05-06T03:41:26.702Z,82.31
2019-05-06T03:42:23.395Z,82.69
2019-05-06T03:43:23.519Z,82.03
2019-05-06T03:44:24.113Z,82.69
2019-05-06T03:45:23.761Z,82.69
2019-05-06T03:46:23.376Z,82.88
2019-05-06T03:47:23.614Z,82.21
2019-05-06T03:48:23.980Z,82.21
2019-05-06T03:49:23.913Z,82.69
2019-05-06T03:50:24.041Z,83.64
2019-05-06T03:51:23.470Z,83.36
2019-05-06T03:52:23.595Z,83.45
2019-05-06T03:53:23.356Z,83.16
2019-05-06T03:54:23.330Z,83.16
2019-05-06T03:55:23.705Z,83.26
2019-05-06T03:56:23.961Z,83.03
2019-05-06T03:57:23.446Z,83.31
2019-05-06T03:58:26.560Z,83.22
2019-05-06T03:59:23.377Z,82.93
2019-05-06T04:00:23.833Z,83.31
2019-05-06T04:01:24.027Z,83.31
2019-05-06T04:02:24.141Z,83.59
2019-05-06T04:03:42.020Z,83.69
2019-05-06T04:04:23.421Z,84.17
2019-05-06T04:05:23.802Z,83.69
2019-05-06T04:06:24.157Z,83.69
2019-05-06T04:07:23.573Z,83.88
2019-05-06T04:08:24.162Z,84.26
2019-05-06T04:09:23.987Z,84.17
2019-05-06T04:10:23.089Z,84.64
2019-05-06T04:11:23.053Z,84.64
2019-05-06T04:12:23.497Z,84.36
2019-05-06T04:13:23.281Z,85.21
2019-05-06T04:14:23.810Z,84.45
2019-05-06T04:15:22.999Z,85.59
2019-05-06T04:16:23.220Z,85.40
2019-05-06T04:17:23.780Z,85.40
2019-05-06T04:18:23.850Z,85.87
2019-05-06T04:19:23.707Z,85.40
2019-05-06T04:20:23.595Z,85.30
2019-05-06T04:21:23.976Z,85.49
2019-05-06T04:22:23.517Z,85.02
2019-05-06T04:23:23.351Z,85.11
2019-05-06T04:24:22.959Z,85.40
2019-05-06T04:25:23.333Z,85.25
2019-05-06T04:26:23.926Z,85.16
2019-05-06T04:27:22.899Z,85.53
2019-05-06T04:28:23.857Z,84.59
2019-05-06T04:29:24.091Z,85.35
2019-05-06T04:30:24.265Z,85.63
2019-05-06T04:31:22.905Z,85.44
2019-05-06T04:32:23.344Z,85.82
2019-05-06T04:33:23.730Z,85.35
2019-05-06T04:34:23.448Z,85.63
2019-05-06T04:35:22.971Z,85.16
2019-05-06T04:36:23.862Z,85.82
2019-05-06T04:37:24.239Z,85.72
2019-05-06T04:38:23.559Z,85.63
2019-05-06T04:39:23.361Z,85.91
2019-05-06T04:40:23.892Z,85.53
2019-05-06T04:41:23.185Z,85.35
2019-05-06T04:42:23.279Z,85.53
2019-05-06T04:43:26.309Z,85.35
2019-05-06T04:44:23.738Z,85.25
2019-05-06T04:45:23.646Z,85.44
2019-05-06T04:46:23.600Z,85.91
2019-05-06T04:47:24.161Z,85.72
2019-05-06T04:48:23.822Z,85.63
2019-05-06T04:49:23.702Z,85.82
2019-05-06T04:50:24.141Z,85.63
2019-05-06T04:51:24.748Z,85.72
2019-05-06T04:52:22.914Z,85.35
2019-05-06T04:53:23.785Z,85.25
2019-05-06T04:54:26.172Z,84.97
2019-05-06T04:55:22.621Z,85.35
2019-05-06T04:56:23.722Z,85.25
2019-05-06T04:57:23.819Z,85.35
2019-05-06T04:58:23.318Z,85.16
2019-05-06T04:59:23.254Z,85.11
2019-05-06T05:00:23.385Z,85.58
2019-05-06T05:01:23.173Z,85.49
2019-05-06T05:02:23.001Z,85.39
2019-05-06T05:03:22.766Z,85.39
2019-05-06T05:04:31.508Z,85.30
2019-05-06T05:05:23.174Z,85.39
2019-05-06T05:06:23.092Z,85.11
2019-05-06T05:07:22.503Z,85.30
2019-05-06T05:08:22.354Z,85.49
2019-05-06T05:09:23.066Z,85.20
2019-05-06T05:10:23.283Z,85.68
2019-05-06T05:11:22.617Z,85.30
2019-05-06T05:12:22.709Z,85.58
2019-05-06T05:13:23.180Z,85.68
2019-05-06T05:14:25.430Z,85.58
2019-05-06T05:15:22.812Z,85.96
2019-05-06T05:16:22.196Z,85.68
2019-05-06T05:17:22.439Z,85.49
2019-05-06T05:18:22.234Z,85.58
2019-05-06T05:19:23.040Z,85.11
2019-05-06T05:20:36.081Z,85.68
2019-05-06T05:21:22.898Z,85.68
2019-05-06T05:22:21.919Z,84.63
2019-05-06T05:23:22.875Z,85.49
2019-05-06T05:24:23.417Z,84.63
2019-05-06T05:25:22.178Z,84.63
2019-05-06T05:26:22.533Z,84.44
2019-05-06T05:27:21.901Z,84.82
2019-05-06T05:28:22.288Z,84.39
2019-05-06T05:29:22.886Z,84.91
2019-05-06T05:30:21.991Z,84.86
2019-05-06T05:31:22.899Z,84.95
2019-05-06T05:32:22.515Z,84.48
2019-05-06T05:33:22.483Z,84.77
2019-05-06T05:34:22.454Z,84.58
2019-05-06T05:35:22.717Z,84.58
2019-05-06T05:36:23.070Z,84.58
2019-05-06T05:37:22.820Z,84.20
2019-05-06T05:38:22.745Z,83.91
2019-05-06T05:39:22.279Z,83.34
2019-05-06T05:40:22.547Z,83.53
2019-05-06T05:41:20.874Z,83.44
2019-05-06T05:42:22.121Z,83.62
2019-05-06T05:43:22.801Z,83.53
2019-05-06T05:44:22.641Z,83.91
2019-05-06T05:45:22.145Z,83.25
2019-05-06T05:46:21.878Z,84.01
2019-05-06T05:47:22.078Z,83.53
2019-05-06T05:48:23.241Z,84.20
2019-05-06T05:49:22.540Z,83.67
2019-05-06T05:50:22.684Z,83.58
2019-05-06T05:51:22.266Z,82.62
2019-05-06T05:52:22.271Z,82.15
2019-05-06T05:53:22.433Z,83.00
2019-05-06T05:54:20.587Z,82.43
2019-05-06T05:55:21.901Z,82.53
2019-05-06T05:56:20.546Z,82.62
2019-05-06T05:57:22.550Z,82.91
2019-05-06T05:58:20.505Z,82.24
2019-05-06T05:59:22.969Z,82.05
2019-05-06T06:00:22.432Z,82.34
2019-05-06T06:01:23.114Z,82.15
2019-05-06T06:02:22.418Z,81.58
2019-05-06T06:03:22.059Z,82.15
2019-05-06T06:04:22.362Z,82.05
2019-05-06T06:05:21.877Z,82.38
2019-05-06T06:06:22.149Z,81.29
2019-05-06T06:07:20.324Z,81.52
2019-05-06T06:08:22.761Z,81.81
2019-05-06T06:09:22.246Z,81.24
2019-05-06T06:10:22.463Z,80.66
2019-05-06T06:11:20.230Z,80.76
2019-05-06T06:12:20.210Z,80.38
2019-05-06T06:13:22.152Z,80.76
2019-05-06T06:14:21.915Z,79.91
2019-05-06T06:15:22.309Z,79.72
2019-05-06T06:16:20.126Z,80.29
2019-05-06T06:17:20.108Z,79.81
2019-05-06T06:18:20.085Z,79.43
2019-05-06T06:19:22.051Z,78.57
2019-05-06T06:20:22.042Z,78.48
2019-05-06T06:21:27.071Z,78.10
2019-05-06T06:22:20.008Z,78.10
2019-05-06T06:23:19.979Z,77.81
2019-05-06T06:24:19.960Z,78.23
2019-05-06T06:25:23.355Z,77.56
2019-05-06T06:26:19.924Z,77.47
2019-05-06T06:27:22.231Z,77.28
2019-05-06T06:28:19.882Z,76.71
2019-05-06T06:29:19.866Z,76.14
2019-05-06T06:30:22.069Z,76.33
2019-05-06T06:31:19.823Z,75.76
2019-05-06T06:32:19.800Z,75.95
2019-05-06T06:33:22.166Z,75.67
2019-05-06T06:34:19.757Z,74.43
2019-05-06T06:35:19.739Z,75.38
2019-05-06T06:36:19.718Z,75.57
2019-05-06T06:37:19.724Z,75.38
2019-05-06T06:38:19.676Z,75.85
2019-05-06T06:39:19.660Z,75.19
2019-05-06T06:40:19.635Z,74.75
2019-05-06T06:41:19.618Z,74.65
2019-05-06T06:42:22.075Z,74.75
2019-05-06T06:43:19.576Z,74.08
2019-05-06T06:44:19.556Z,73.99
2019-05-06T06:45:19.535Z,73.89
2019-05-06T06:46:19.514Z,72.94
2019-05-06T06:47:19.500Z,72.75
2019-05-06T06:48:19.477Z,72.65
2019-05-06T06:49:19.454Z,72.56
2019-05-06T06:50:19.436Z,73.03
2019-05-06T06:51:19.416Z,72.08
2019-05-06T06:52:19.396Z,72.17
2019-05-06T06:53:19.374Z,72.31
2019-05-06T06:54:19.359Z,71.80
2019-05-06T06:55:19.336Z,72.21
2019-05-06T06:56:19.315Z,71.64
2019-05-06T06:57:19.299Z,70.97
2019-05-06T06:58:19.282Z,71.45
2019-05-06T06:59:19.265Z,71.73
2019-05-06T07:00:19.234Z,70.88
2019-05-06T07:01:19.218Z,71.26
2019-05-06T07:02:19.312Z,71.55
2019-05-06T07:03:19.177Z,71.87
2019-05-06T07:04:19.161Z,70.82
2019-05-06T07:05:25.516Z,69.48
2019-05-06T07:06:19.127Z,69.39
2019-05-06T07:07:19.109Z,68.85
2019-05-06T07:08:32.064Z,69.04
2019-05-06T07:09:19.066Z,68.47
2019-05-06T07:10:19.043Z,67.52
2019-05-06T07:11:19.027Z,67.14
2019-05-06T07:12:19.061Z,65.83
2019-05-06T07:13:18.987Z,63.67
2019-05-06T07:14:18.975Z,62.43
2019-05-06T07:15:18.952Z,62.21
2019-05-06T07:16:20.718Z,62.05
2019-05-06T07:17:18.996Z,61.54
2019-05-06T07:18:18.892Z,59.75
2019-05-06T07:19:18.882Z,58.25
2019-05-06T07:20:18.855Z,57.51
2019-05-06T07:21:18.839Z,56.39
2019-05-06T07:22:18.820Z,55.63
2019-05-06T07:23:18.805Z,53.45
2019-05-06T07:24:18.782Z,53.38
2019-05-06T07:25:18.773Z,52.87
2019-05-06T07:26:18.749Z,52.69
2019-05-06T07:27:18.729Z,52.26
2019-05-06T07:28:18.713Z,51.18
2019-05-06T07:29:23.450Z,51.82
2019-05-06T07:30:18.681Z,52.83
2019-05-06T07:31:22.789Z,54.14
2019-05-06T07:32:18.645Z,55.54
2019-05-06T07:33:18.632Z,57.04
2019-05-06T07:34:18.619Z,56.01
2019-05-06T07:35:18.601Z,54.22
2019-05-06T07:36:20.158Z,52.78
2019-05-06T07:37:18.565Z,52.18
2019-05-06T07:38:18.547Z,52.59
2019-05-06T07:39:18.542Z,52.50
2019-05-06T07:40:18.523Z,52.40
2019-05-06T07:41:18.522Z,52.47
2019-05-06T07:42:18.504Z,52.59
2019-05-06T07:43:18.476Z,51.28
2019-05-06T07:44:18.469Z,50.27
2019-05-06T07:45:18.449Z,48.54
2019-05-06T07:46:18.441Z,47.99
2019-05-06T07:47:18.425Z,47.44
2019-05-06T07:48:18.407Z,46.41
2019-05-06T07:49:18.398Z,44.84
2019-05-06T07:50:18.385Z,44.73
2019-05-06T07:51:18.390Z,45.59
2019-05-06T07:52:18.361Z,46.48
2019-05-06T07:53:18.352Z,46.41
2019-05-06T07:54:18.338Z,45.47
2019-05-06T07:55:18.330Z,45.28
2019-05-06T07:56:18.325Z,44.22
2019-05-06T07:57:18.310Z,43.64
2019-05-06T07:58:18.297Z,43.54
2019-05-06T07:59:18.285Z,43.64
2019-05-06T08:00:18.280Z,44.02
2019-05-06T08:01:18.271Z,43.57
2019-05-06T08:02:18.264Z,43.16
2019-05-06T08:03:18.252Z,44.10
2019-05-06T08:04:18.249Z,44.65
2019-05-06T08:05:18.238Z,45.76
2019-05-06T08:06:18.230Z,46.84
2019-05-06T08:07:18.220Z,46.81
2019-05-06T08:08:18.209Z,47.10
2019-05-06T08:09:18.203Z,47.39
2019-05-06T08:10:18.198Z,47.20
2019-05-06T08:11:18.186Z,47.99
2019-05-06T08:12:18.181Z,45.52
2019-05-06T08:13:18.177Z,44.46
2019-05-06T08:14:18.167Z,44.38
2019-05-06T08:15:18.180Z,44.10
2019-05-06T08:16:18.155Z,43.62
2019-05-06T08:17:18.145Z,44.34
2019-05-06T08:18:18.142Z,45.86
2019-05-06T08:19:18.132Z,46.60
2019-05-06T08:20:18.125Z,46.58
2019-05-06T08:21:18.119Z,46.96
2019-05-06T08:22:18.112Z,48.02
2019-05-06T08:23:18.105Z,46.81
2019-05-06T08:24:18.100Z,45.32
2019-05-06T08:25:18.091Z,44.65
2019-05-06T08:26:18.285Z,43.77
2019-05-06T08:27:18.078Z,45.21
2019-05-06T08:28:18.072Z,45.21
2019-05-06T08:29:18.064Z,44.90
2019-05-06T08:30:18.095Z,45.74
2019-05-06T08:31:18.050Z,45.67
2019-05-06T08:32:18.042Z,44.46
2019-05-06T08:33:18.045Z,43.54
2019-05-06T08:34:18.030Z,42.33
2019-05-06T08:35:18.022Z,41.33
2019-05-06T08:36:18.016Z,42.73
2019-05-06T08:37:18.010Z,44.24
2019-05-06T08:38:18.011Z,43.31
2019-05-06T08:39:17.996Z,43.55
2019-05-06T08:40:17.988Z,44.40
2019-05-06T08:41:17.982Z,45.07
2019-05-06T08:42:17.974Z,45.14
2019-05-06T08:43:17.970Z,45.69
2019-05-06T08:44:17.961Z,46.58
2019-05-06T08:45:17.956Z,45.95
2019-05-06T08:46:17.950Z,44.27
2019-05-06T08:47:17.938Z,42.70
2019-05-06T08:48:17.931Z,41.88
2019-05-06T08:49:17.928Z,41.78
2019-05-06T08:50:17.918Z,40.47
2019-05-06T08:51:17.910Z,38.95
2019-05-06T08:52:17.898Z,38.53
2019-05-06T08:53:17.897Z,39.26
2019-05-06T08:54:17.898Z,39.78
2019-05-06T08:55:17.882Z,38.70
2019-05-06T08:56:17.876Z,39.54
2019-05-06T08:57:17.867Z,39.61
2019-05-06T08:58:17.865Z,40.16
2019-05-06T08:59:17.860Z,41.39
2019-05-06T09:00:17.853Z,41.67
2019-05-06T09:01:17.844Z,41.99
2019-05-06T09:02:17.840Z,41.82
2019-05-06T09:03:17.839Z,41.55
2019-05-06T09:04:17.835Z,41.01
2019-05-06T09:05:17.821Z,39.37
2019-05-06T09:06:27.583Z,39.29
2019-05-06T09:07:17.808Z,38.49
2019-05-06T09:08:17.798Z,38.95
2019-05-06T09:09:17.790Z,40.35
2019-05-06T09:10:17.784Z,41.55
2019-05-06T09:11:17.777Z,41.18
2019-05-06T09:12:17.773Z,38.68
2019-05-06T09:13:17.776Z,39.24
2019-05-06T09:14:17.779Z,38.54
2019-05-06T09:15:17.757Z,39.01
2019-05-06T09:16:17.747Z,40.05
2019-05-06T09:17:17.743Z,41.66
2019-05-06T09:18:17.741Z,41.73
2019-05-06T09:19:17.732Z,42.79
2019-05-06T09:20:17.730Z,42.38
2019-05-06T09:21:17.727Z,42.74
2019-05-06T09:22:17.708Z,44.09
2019-05-06T09:23:17.706Z,45.14
2019-05-06T09:24:17.700Z,45.40
2019-05-06T09:25:17.690Z,44.64
2019-05-06T09:26:17.683Z,45.21
2019-05-06T09:27:17.677Z,46.44
2019-05-06T09:28:17.675Z,46.82
2019-05-06T09:29:17.659Z,47.11
2019-05-06T09:30:17.649Z,46.80
2019-05-06T09:31:17.645Z,46.80
2019-05-06T09:32:17.634Z,47.47
2019-05-06T09:33:17.625Z,47.94
2019-05-06T09:34:17.615Z,48.39
2019-05-06T09:35:17.606Z,48.02
2019-05-06T09:36:17.599Z,47.34
2019-05-06T09:37:17.586Z,48.11
2019-05-06T09:38:17.575Z,48.68
2019-05-06T09:39:17.567Z,48.39
2019-05-06T09:40:17.553Z,48.78
2019-05-06T09:41:17.549Z,49.35
2019-05-06T09:42:17.537Z,49.55
2019-05-06T09:43:17.529Z,49.26
2019-05-06T09:44:17.514Z,49.93
2019-05-06T09:45:17.507Z,49.16
2019-05-06T09:46:17.497Z,48.68
2019-05-06T09:47:17.484Z,48.97
2019-05-06T09:48:17.472Z,49.74
2019-05-06T09:49:17.471Z,48.97
2019-05-06T09:50:17.463Z,48.13
2019-05-06T09:51:17.441Z,47.80
2019-05-06T09:52:17.427Z,48.30
2019-05-06T09:53:17.419Z,45.47
2019-05-06T09:54:17.425Z,44.61
2019-05-06T09:55:17.404Z,43.74
2019-05-06T09:56:17.386Z,43.44
2019-05-06T09:57:17.385Z,43.34
2019-05-06T09:58:17.370Z,43.39
2019-05-06T09:59:17.353Z,43.97
2019-05-06T10:00:17.341Z,45.12
2019-05-06T10:01:17.332Z,45.96
2019-05-06T10:02:17.326Z,45.38
2019-05-06T10:03:17.316Z,46.34
2019-05-06T10:04:17.301Z,46.22
2019-05-06T10:05:17.286Z,47.18
2019-05-06T10:06:17.280Z,48.13
2019-05-06T10:07:17.263Z,48.61
2019-05-06T10:08:17.257Z,48.13
2019-05-06T10:09:17.247Z,47.27
2019-05-06T10:10:17.859Z,47.56
2019-05-06T10:11:17.223Z,47.75
2019-05-06T10:12:17.211Z,48.25
2019-05-06T10:13:17.198Z,48.44
2019-05-06T10:14:17.183Z,46.91
2019-05-06T10:15:17.176Z,46.55
2019-05-06T10:16:17.163Z,45.36
2019-05-06T10:17:17.154Z,43.94
2019-05-06T10:18:17.145Z,42.64
2019-05-06T10:19:17.134Z,42.47
2019-05-06T10:20:17.126Z,41.70
2019-05-06T10:21:17.112Z,38.81
2019-05-06T10:22:17.103Z,37.76
2019-05-06T10:23:17.094Z,38.02
2019-05-06T10:24:17.121Z,38.96
2019-05-06T10:25:17.076Z,38.47
2019-05-06T10:26:17.067Z,40.17
2019-05-06T10:27:17.058Z,40.54
2019-05-06T10:28:17.051Z,41.96
2019-05-06T10:29:17.040Z,42.34
2019-05-06T10:30:17.049Z,42.91
2019-05-06T10:31:17.024Z,42.80
2019-05-06T10:32:17.012Z,43.08
2019-05-06T10:33:17.007Z,43.37
2019-05-06T10:34:16.990Z,43.44
2019-05-06T10:35:16.985Z,44.04
2019-05-06T10:36:16.981Z,43.39
2019-05-06T10:37:19.354Z,42.94
2019-05-06T10:38:16.954Z,43.03
2019-05-06T10:39:16.950Z,43.90
2019-05-06T10:40:16.935Z,42.98
2019-05-06T10:41:16.928Z,43.27
2019-05-06T10:42:16.914Z,41.63
2019-05-06T10:43:16.908Z,41.56
2019-05-06T10:44:16.900Z,40.41
2019-05-06T10:45:16.892Z,39.73
2019-05-06T10:46:16.896Z,40.02
2019-05-06T10:47:16.878Z,39.43
2019-05-06T10:48:16.858Z,40.20
2019-05-06T10:49:16.852Z,41.40
2019-05-06T10:50:16.844Z,41.86
2019-05-06T10:51:17.236Z,42.32
2019-05-06T10:52:16.826Z,43.66
2019-05-06T10:53:16.868Z,44.02
2019-05-06T10:54:16.837Z,43.73
2019-05-06T10:55:16.802Z,43.63
2019-05-06T10:56:16.788Z,44.12
2019-05-06T10:57:16.778Z,44.40
2019-05-06T10:58:16.770Z,45.19
2019-05-06T10:59:16.761Z,44.43
2019-05-06T11:00:16.751Z,44.23
2019-05-06T11:01:16.748Z,44.62
2019-05-06T11:02:16.728Z,44.68
2019-05-06T11:03:16.726Z,42.81
2019-05-06T11:04:16.714Z,41.12
2019-05-06T11:05:16.698Z,38.53
2019-05-06T11:06:16.692Z,37.51
2019-05-06T11:07:27.577Z,36.22
2019-05-06T11:08:16.673Z,36.95
2019-05-06T11:09:16.672Z,37.89
2019-05-06T11:10:23.955Z,38.95
2019-05-06T11:11:31.336Z,39.98
2019-05-06T11:12:16.641Z,40.64
2019-05-06T11:13:16.636Z,41.48
2019-05-06T11:14:16.624Z,41.28
2019-05-06T11:15:16.617Z,41.57
2019-05-06T11:16:17.102Z,42.03
2019-05-06T11:17:16.624Z,42.32
2019-05-06T11:18:16.601Z,42.99
2019-05-06T11:19:16.578Z,43.26
2019-05-06T11:20:16.567Z,42.94
2019-05-06T11:21:16.567Z,41.44
2019-05-06T11:22:16.549Z,40.35
2019-05-06T11:23:16.546Z,38.64
2019-05-06T11:24:16.535Z,37.60
2019-05-06T11:25:16.525Z,36.58
2019-05-06T11:26:16.516Z,35.16
2019-05-06T11:27:28.088Z,34.67
2019-05-06T11:28:16.513Z,34.01
2019-05-06T11:29:16.504Z,34.42
2019-05-06T11:30:16.491Z,33.82
2019-05-06T11:31:16.491Z,35.04
2019-05-06T11:32:16.480Z,35.10
2019-05-06T11:33:16.472Z,36.22
2019-05-06T11:34:16.469Z,37.35
2019-05-06T11:35:16.465Z,38.49
2019-05-06T11:36:16.458Z,38.96
2019-05-06T11:37:16.455Z,39.14
2019-05-06T11:38:16.446Z,40.20
2019-05-06T11:39:16.442Z,40.17
2019-05-06T11:40:17.188Z,40.73
2019-05-06T11:41:16.425Z,40.52
2019-05-06T11:42:27.609Z,41.28
2019-05-06T11:43:16.411Z,41.38
2019-05-06T11:44:16.410Z,41.77
2019-05-06T11:45:16.400Z,41.67
2019-05-06T11:46:16.391Z,42.13
2019-05-06T11:47:16.392Z,42.41
2019-05-06T11:48:16.379Z,42.80
2019-05-06T11:49:16.369Z,42.41
2019-05-06T11:50:16.362Z,42.14
2019-05-06T11:51:16.362Z,42.24
2019-05-06T11:52:16.345Z,41.60
2019-05-06T11:53:16.335Z,40.29
2019-05-06T11:54:20.074Z,39.06
2019-05-06T11:55:27.833Z,39.28
2019-05-06T11:56:16.317Z,38.95
2019-05-06T11:57:16.303Z,37.93
2019-05-06T11:58:16.297Z,35.77
2019-05-06T11:59:16.289Z,34.64
2019-05-06T12:00:16.287Z,33.95
2019-05-06T12:01:16.284Z,33.80
2019-05-06T12:02:16.269Z,32.26
2019-05-06T12:03:16.265Z,30.63
2019-05-06T12:04:16.259Z,30.96
2019-05-06T12:05:16.257Z,30.31
2019-05-06T12:06:16.249Z,30.52
2019-05-06T12:07:16.435Z,30.73
2019-05-06T12:08:16.245Z,28.39
2019-05-06T12:09:17.223Z,28.85
2019-05-06T12:10:16.236Z,28.40
2019-05-06T12:11:16.229Z,29.90
2019-05-06T12:12:16.227Z,31.32
2019-05-06T12:13:16.229Z,32.84
2019-05-06T12:14:16.223Z,33.89
2019-05-06T12:15:16.217Z,34.54
2019-05-06T12:16:16.213Z,34.72
2019-05-06T12:17:16.211Z,35.38
2019-05-06T12:18:16.212Z,36.05
2019-05-06T12:19:16.209Z,37.57
2019-05-06T12:20:16.207Z,37.47
2019-05-06T12:21:19.068Z,37.16
2019-05-06T12:22:16.191Z,37.74
2019-05-06T12:23:16.195Z,37.72
2019-05-06T12:24:16.184Z,38.56
2019-05-06T12:25:16.185Z,38.85
2019-05-06T12:26:16.175Z,39.62
2019-05-06T12:27:16.181Z,40.29
2019-05-06T12:28:17.666Z,40.75
2019-05-06T12:29:16.166Z,40.66
2019-05-06T12:30:16.155Z,41.80
2019-05-06T12:31:16.149Z,42.07
2019-05-06T12:32:16.152Z,42.07
2019-05-06T12:33:16.138Z,41.88
2019-05-06T12:34:16.136Z,41.69
2019-05-06T12:35:16.128Z,41.69
2019-05-06T12:36:16.119Z,41.48
2019-05-06T12:37:16.111Z,41.50
2019-05-06T12:38:26.696Z,41.19
2019-05-06T12:39:18.527Z,41.67
2019-05-06T12:40:16.088Z,42.34
2019-05-06T12:41:16.086Z,41.86
2019-05-06T12:42:16.084Z,41.50
2019-05-06T12:43:16.064Z,41.60
2019-05-06T12:44:16.060Z,40.92
2019-05-06T12:45:16.055Z,40.73
2019-05-06T12:46:16.047Z,41.42
2019-05-06T12:47:16.039Z,41.42
2019-05-06T12:48:16.028Z,41.73
2019-05-06T12:49:16.023Z,42.69
2019-05-06T12:50:16.010Z,41.63
2019-05-06T12:51:16.012Z,41.46
2019-05-06T12:52:15.997Z,41.37
2019-05-06T12:53:15.994Z,39.73